sensor_id;sensor_type;location;lat;lon;timestamp;P1;durP1;ratioP1;P2;durP2;ratioP2
20397;SDS011;10358;49.590;11.030;2023-07-20T00:01:27;7.07;;;3.40;;
20397;SDS011;10358;49.590;11.030;2023-07-20T00:03:53;7.05;;;3.33;;
20397;SDS011;10358;49.590;11.030;2023-07-20T00:06:22;5.78;;;3.22;;
20397;SDS011;10358;49.590;11.030;2023-07-20T00:08:49;11.38;;;3.75;;
20397;SDS011;10358;49.590;11.030;2023-07-20T00:11:16;8.95;;;3.53;;
20397;SDS011;10358;49.590;11.030;2023-07-20T00:13:41;6.60;;;3.42;;
20397;SDS011;10358;49.590;11.030;2023-07-20T00:16:07;7.57;;;3.63;;
20397;SDS011;10358;49.590;11.030;2023-07-20T00:18:33;7.93;;;3.95;;
20397;SDS011;10358;49.590;11.030;2023-07-20T00:20:58;6.25;;;3.78;;
20397;SDS011;10358;49.590;11.030;2023-07-20T00:23:24;8.52;;;3.40;;
20397;SDS011;10358;49.590;11.030;2023-07-20T00:25:50;5.72;;;3.47;;
20397;SDS011;10358;49.590;11.030;2023-07-20T00:28:16;6.65;;;3.20;;
20397;SDS011;10358;49.590;11.030;2023-07-20T00:30:42;4.70;;;2.95;;
20397;SDS011;10358;49.590;11.030;2023-07-20T00:33:09;10.90;;;3.70;;
20397;SDS011;10358;49.590;11.030;2023-07-20T00:35:36;9.52;;;3.08;;
20397;SDS011;10358;49.590;11.030;2023-07-20T00:38:02;6.55;;;3.22;;
20397;SDS011;10358;49.590;11.030;2023-07-20T00:40:28;6.65;;;3.58;;
20397;SDS011;10358;49.590;11.030;2023-07-20T00:43:00;7.55;;;3.75;;
20397;SDS011;10358;49.590;11.030;2023-07-20T00:45:25;7.18;;;3.83;;
20397;SDS011;10358;49.590;11.030;2023-07-20T00:47:51;5.70;;;3.35;;
20397;SDS011;10358;49.590;11.030;2023-07-20T00:50:17;11.63;;;3.35;;
20397;SDS011;10358;49.590;11.030;2023-07-20T00:52:43;7.85;;;3.50;;
20397;SDS011;10358;49.590;11.030;2023-07-20T00:55:08;7.07;;;3.30;;
20397;SDS011;10358;49.590;11.030;2023-07-20T00:57:35;8.57;;;3.90;;
20397;SDS011;10358;49.590;11.030;2023-07-20T01:00:00;6.53;;;3.70;;
20397;SDS011;10358;49.590;11.030;2023-07-20T01:02:26;8.13;;;3.78;;
20397;SDS011;10358;49.590;11.030;2023-07-20T01:04:52;6.72;;;3.75;;
20397;SDS011;10358;49.590;11.030;2023-07-20T01:12:47;9.73;;;3.95;;
20397;SDS011;10358;49.590;11.030;2023-07-20T01:15:16;11.40;;;3.88;;
20397;SDS011;10358;49.590;11.030;2023-07-20T01:17:41;9.38;;;4.22;;
20397;SDS011;10358;49.590;11.030;2023-07-20T01:20:07;5.93;;;4.05;;
20397;SDS011;10358;49.590;11.030;2023-07-20T01:25:34;9.35;;;3.92;;
20397;SDS011;10358;49.590;11.030;2023-07-20T01:33:43;10.95;;;5.00;;
20397;SDS011;10358;49.590;11.030;2023-07-20T01:36:10;9.35;;;4.47;;
20397;SDS011;10358;49.590;11.030;2023-07-20T01:38:36;6.80;;;4.13;;
20397;SDS011;10358;49.590;11.030;2023-07-20T01:41:02;5.32;;;3.88;;
20397;SDS011;10358;49.590;11.030;2023-07-20T01:43:28;7.65;;;3.80;;
20397;SDS011;10358;49.590;11.030;2023-07-20T01:45:54;8.57;;;3.80;;
20397;SDS011;10358;49.590;11.030;2023-07-20T01:48:19;8.23;;;4.13;;
20397;SDS011;10358;49.590;11.030;2023-07-20T01:50:45;7.18;;;4.45;;
20397;SDS011;10358;49.590;11.030;2023-07-20T01:53:11;8.52;;;4.65;;
20397;SDS011;10358;49.590;11.030;2023-07-20T01:55:36;5.70;;;4.15;;
20397;SDS011;10358;49.590;11.030;2023-07-20T01:58:02;7.57;;;4.20;;
20397;SDS011;10358;49.590;11.030;2023-07-20T02:00:28;7.95;;;3.85;;
20397;SDS011;10358;49.590;11.030;2023-07-20T02:02:54;5.70;;;3.95;;
20397;SDS011;10358;49.590;11.030;2023-07-20T02:05:19;6.72;;;3.97;;
20397;SDS011;10358;49.590;11.030;2023-07-20T02:07:45;7.88;;;3.83;;
20397;SDS011;10358;49.590;11.030;2023-07-20T02:10:10;6.78;;;3.95;;
20397;SDS011;10358;49.590;11.030;2023-07-20T02:12:36;5.45;;;3.35;;
20397;SDS011;10358;49.590;11.030;2023-07-20T02:15:02;9.07;;;4.50;;
20397;SDS011;10358;49.590;11.030;2023-07-20T02:17:28;9.52;;;4.10;;
20397;SDS011;10358;49.590;11.030;2023-07-20T02:19:54;11.88;;;4.40;;
20397;SDS011;10358;49.590;11.030;2023-07-20T02:22:20;11.02;;;4.47;;
20397;SDS011;10358;49.590;11.030;2023-07-20T02:24:46;6.57;;;4.18;;
20397;SDS011;10358;49.590;11.030;2023-07-20T02:27:12;8.55;;;4.88;;
20397;SDS011;10358;49.590;11.030;2023-07-20T02:29:37;22.55;;;5.05;;
20397;SDS011;10358;49.590;11.030;2023-07-20T02:32:05;9.20;;;4.60;;
20397;SDS011;10358;49.590;11.030;2023-07-20T02:34:31;9.85;;;4.72;;
20397;SDS011;10358;49.590;11.030;2023-07-20T02:36:57;11.13;;;4.63;;
20397;SDS011;10358;49.590;11.030;2023-07-20T02:39:24;9.38;;;4.70;;
20397;SDS011;10358;49.590;11.030;2023-07-20T02:41:49;7.53;;;4.70;;
20397;SDS011;10358;49.590;11.030;2023-07-20T02:44:15;9.18;;;4.63;;
20397;SDS011;10358;49.590;11.030;2023-07-20T02:46:41;11.48;;;5.00;;
20397;SDS011;10358;49.590;11.030;2023-07-20T02:49:06;12.80;;;4.90;;
20397;SDS011;10358;49.590;11.030;2023-07-20T02:51:32;10.65;;;5.05;;
20397;SDS011;10358;49.590;11.030;2023-07-20T02:53:57;8.13;;;4.38;;
20397;SDS011;10358;49.590;11.030;2023-07-20T02:56:23;7.82;;;4.80;;
20397;SDS011;10358;49.590;11.030;2023-07-20T02:58:49;9.85;;;5.05;;
20397;SDS011;10358;49.590;11.030;2023-07-20T03:01:15;9.93;;;4.53;;
20397;SDS011;10358;49.590;11.030;2023-07-20T03:03:41;7.95;;;4.78;;
20397;SDS011;10358;49.590;11.030;2023-07-20T03:06:11;12.02;;;4.63;;
20397;SDS011;10358;49.590;11.030;2023-07-20T03:08:37;8.10;;;4.63;;
20397;SDS011;10358;49.590;11.030;2023-07-20T03:11:03;6.72;;;4.70;;
20397;SDS011;10358;49.590;11.030;2023-07-20T03:13:28;7.18;;;4.50;;
20397;SDS011;10358;49.590;11.030;2023-07-20T03:15:54;10.20;;;4.75;;
20397;SDS011;10358;49.590;11.030;2023-07-20T03:18:20;10.57;;;4.72;;
20397;SDS011;10358;49.590;11.030;2023-07-20T03:20:45;8.73;;;4.80;;
20397;SDS011;10358;49.590;11.030;2023-07-20T03:23:11;8.40;;;4.43;;
20397;SDS011;10358;49.590;11.030;2023-07-20T03:25:37;8.35;;;4.63;;
20397;SDS011;10358;49.590;11.030;2023-07-20T03:28:03;9.20;;;4.90;;
20397;SDS011;10358;49.590;11.030;2023-07-20T03:30:29;9.45;;;4.95;;
20397;SDS011;10358;49.590;11.030;2023-07-20T03:32:54;10.23;;;4.43;;
20397;SDS011;10358;49.590;11.030;2023-07-20T03:35:20;10.05;;;5.18;;
20397;SDS011;10358;49.590;11.030;2023-07-20T03:37:45;11.43;;;4.78;;
20397;SDS011;10358;49.590;11.030;2023-07-20T03:40:11;9.27;;;4.88;;
20397;SDS011;10358;49.590;11.030;2023-07-20T03:42:36;19.92;;;5.38;;
20397;SDS011;10358;49.590;11.030;2023-07-20T03:45:03;11.60;;;4.30;;
20397;SDS011;10358;49.590;11.030;2023-07-20T03:47:29;9.05;;;4.50;;
20397;SDS011;10358;49.590;11.030;2023-07-20T03:49:58;8.35;;;4.65;;
20397;SDS011;10358;49.590;11.030;2023-07-20T03:52:23;10.20;;;5.38;;
20397;SDS011;10358;49.590;11.030;2023-07-20T03:54:49;8.77;;;4.72;;
20397;SDS011;10358;49.590;11.030;2023-07-20T03:57:16;13.95;;;4.97;;
20397;SDS011;10358;49.590;11.030;2023-07-20T03:59:44;9.60;;;4.57;;
20397;SDS011;10358;49.590;11.030;2023-07-20T04:02:11;8.02;;;4.47;;
20397;SDS011;10358;49.590;11.030;2023-07-20T04:04:36;12.48;;;4.85;;
20397;SDS011;10358;49.590;11.030;2023-07-20T04:07:02;23.80;;;7.47;;
20397;SDS011;10358;49.590;11.030;2023-07-20T04:09:28;10.02;;;4.93;;
20397;SDS011;10358;49.590;11.030;2023-07-20T04:11:53;14.23;;;4.53;;
20397;SDS011;10358;49.590;11.030;2023-07-20T04:14:19;11.65;;;4.53;;
20397;SDS011;10358;49.590;11.030;2023-07-20T04:16:48;10.75;;;4.78;;
20397;SDS011;10358;49.590;11.030;2023-07-20T04:19:14;15.60;;;4.78;;
20397;SDS011;10358;49.590;11.030;2023-07-20T04:21:40;6.60;;;4.45;;
20397;SDS011;10358;49.590;11.030;2023-07-20T04:24:08;11.90;;;4.40;;
20397;SDS011;10358;49.590;11.030;2023-07-20T04:26:34;13.13;;;4.82;;
20397;SDS011;10358;49.590;11.030;2023-07-20T04:29:00;9.93;;;4.70;;
20397;SDS011;10358;49.590;11.030;2023-07-20T04:31:26;16.40;;;5.18;;
20397;SDS011;10358;49.590;11.030;2023-07-20T04:33:51;10.65;;;4.63;;
20397;SDS011;10358;49.590;11.030;2023-07-20T04:36:17;7.32;;;4.68;;
20397;SDS011;10358;49.590;11.030;2023-07-20T04:38:47;10.38;;;4.38;;
20397;SDS011;10358;49.590;11.030;2023-07-20T04:41:13;6.72;;;4.43;;
20397;SDS011;10358;49.590;11.030;2023-07-20T04:43:42;10.43;;;4.68;;
20397;SDS011;10358;49.590;11.030;2023-07-20T04:46:09;11.38;;;5.10;;
20397;SDS011;10358;49.590;11.030;2023-07-20T04:48:35;11.32;;;4.47;;
20397;SDS011;10358;49.590;11.030;2023-07-20T04:51:00;13.32;;;4.70;;
20397;SDS011;10358;49.590;11.030;2023-07-20T04:53:26;8.75;;;4.68;;
20397;SDS011;10358;49.590;11.030;2023-07-20T04:55:51;10.10;;;4.35;;
20397;SDS011;10358;49.590;11.030;2023-07-20T04:58:18;6.95;;;4.30;;
20397;SDS011;10358;49.590;11.030;2023-07-20T05:00:44;12.88;;;5.00;;
20397;SDS011;10358;49.590;11.030;2023-07-20T05:03:09;8.25;;;4.15;;
20397;SDS011;10358;49.590;11.030;2023-07-20T05:05:35;9.65;;;5.07;;
20397;SDS011;10358;49.590;11.030;2023-07-20T05:08:00;11.07;;;4.43;;
20397;SDS011;10358;49.590;11.030;2023-07-20T05:10:26;12.65;;;4.18;;
20397;SDS011;10358;49.590;11.030;2023-07-20T05:12:52;8.65;;;4.50;;
20397;SDS011;10358;49.590;11.030;2023-07-20T05:15:17;9.82;;;4.07;;
20397;SDS011;10358;49.590;11.030;2023-07-20T05:17:43;8.60;;;4.07;;
20397;SDS011;10358;49.590;11.030;2023-07-20T05:20:09;11.23;;;4.10;;
20397;SDS011;10358;49.590;11.030;2023-07-20T05:22:35;7.35;;;4.38;;
20397;SDS011;10358;49.590;11.030;2023-07-20T05:25:04;11.90;;;4.13;;
20397;SDS011;10358;49.590;11.030;2023-07-20T05:27:35;9.15;;;3.75;;
20397;SDS011;10358;49.590;11.030;2023-07-20T05:30:02;10.90;;;4.60;;
20397;SDS011;10358;49.590;11.030;2023-07-20T05:32:28;7.78;;;3.53;;
20397;SDS011;10358;49.590;11.030;2023-07-20T05:34:54;9.98;;;4.30;;
20397;SDS011;10358;49.590;11.030;2023-07-20T05:37:20;6.35;;;3.97;;
20397;SDS011;10358;49.590;11.030;2023-07-20T05:39:45;6.63;;;3.60;;
20397;SDS011;10358;49.590;11.030;2023-07-20T05:42:11;9.40;;;4.03;;
20397;SDS011;10358;49.590;11.030;2023-07-20T05:44:36;7.38;;;3.78;;
20397;SDS011;10358;49.590;11.030;2023-07-20T05:47:02;10.20;;;3.38;;
20397;SDS011;10358;49.590;11.030;2023-07-20T05:49:28;9.23;;;3.60;;
20397;SDS011;10358;49.590;11.030;2023-07-20T05:51:54;8.32;;;3.65;;
20397;SDS011;10358;49.590;11.030;2023-07-20T05:54:21;9.63;;;3.60;;
20397;SDS011;10358;49.590;11.030;2023-07-20T05:56:46;7.63;;;4.22;;
20397;SDS011;10358;49.590;11.030;2023-07-20T05:59:12;6.55;;;3.50;;
20397;SDS011;10358;49.590;11.030;2023-07-20T06:01:38;6.45;;;3.30;;
20397;SDS011;10358;49.590;11.030;2023-07-20T06:04:03;8.90;;;3.42;;
20397;SDS011;10358;49.590;11.030;2023-07-20T06:06:29;8.75;;;3.55;;
20397;SDS011;10358;49.590;11.030;2023-07-20T06:08:54;8.80;;;3.80;;
20397;SDS011;10358;49.590;11.030;2023-07-20T06:11:20;9.75;;;3.42;;
20397;SDS011;10358;49.590;11.030;2023-07-20T06:13:45;14.10;;;3.30;;
20397;SDS011;10358;49.590;11.030;2023-07-20T06:16:11;9.55;;;3.60;;
20397;SDS011;10358;49.590;11.030;2023-07-20T06:18:37;8.32;;;3.33;;
20397;SDS011;10358;49.590;11.030;2023-07-20T06:21:02;8.88;;;3.70;;
20397;SDS011;10358;49.590;11.030;2023-07-20T06:23:28;14.52;;;3.58;;
20397;SDS011;10358;49.590;11.030;2023-07-20T06:25:54;7.55;;;3.20;;
20397;SDS011;10358;49.590;11.030;2023-07-20T06:28:19;7.50;;;3.13;;
20397;SDS011;10358;49.590;11.030;2023-07-20T06:30:45;6.57;;;3.00;;
20397;SDS011;10358;49.590;11.030;2023-07-20T06:33:10;9.15;;;3.30;;
20397;SDS011;10358;49.590;11.030;2023-07-20T06:35:36;10.13;;;3.60;;
20397;SDS011;10358;49.590;11.030;2023-07-20T06:38:02;11.75;;;4.10;;
20397;SDS011;10358;49.590;11.030;2023-07-20T06:40:29;7.00;;;3.47;;
20397;SDS011;10358;49.590;11.030;2023-07-20T06:42:55;11.43;;;3.40;;
20397;SDS011;10358;49.590;11.030;2023-07-20T06:45:20;11.90;;;3.55;;
20397;SDS011;10358;49.590;11.030;2023-07-20T06:47:46;6.78;;;3.30;;
20397;SDS011;10358;49.590;11.030;2023-07-20T06:50:12;7.70;;;3.17;;
20397;SDS011;10358;49.590;11.030;2023-07-20T06:52:37;6.72;;;3.25;;
20397;SDS011;10358;49.590;11.030;2023-07-20T06:55:04;5.55;;;2.90;;
20397;SDS011;10358;49.590;11.030;2023-07-20T06:57:31;6.60;;;3.28;;
20397;SDS011;10358;49.590;11.030;2023-07-20T06:59:56;9.77;;;3.03;;
20397;SDS011;10358;49.590;11.030;2023-07-20T07:02:22;6.38;;;2.70;;
20397;SDS011;10358;49.590;11.030;2023-07-20T07:04:47;7.35;;;3.15;;
20397;SDS011;10358;49.590;11.030;2023-07-20T07:07:13;7.20;;;3.15;;
20397;SDS011;10358;49.590;11.030;2023-07-20T07:09:40;8.77;;;3.13;;
20397;SDS011;10358;49.590;11.030;2023-07-20T07:12:06;7.18;;;2.95;;
20397;SDS011;10358;49.590;11.030;2023-07-20T07:14:32;8.52;;;3.00;;
20397;SDS011;10358;49.590;11.030;2023-07-20T07:16:57;6.15;;;2.72;;
20397;SDS011;10358;49.590;11.030;2023-07-20T07:19:23;5.70;;;2.90;;
20397;SDS011;10358;49.590;11.030;2023-07-20T07:21:48;8.00;;;2.78;;
20397;SDS011;10358;49.590;11.030;2023-07-20T07:24:14;6.55;;;2.83;;
20397;SDS011;10358;49.590;11.030;2023-07-20T07:26:39;5.97;;;2.47;;
20397;SDS011;10358;49.590;11.030;2023-07-20T07:29:05;3.50;;;2.40;;
20397;SDS011;10358;49.590;11.030;2023-07-20T07:31:33;5.40;;;2.22;;
20397;SDS011;10358;49.590;11.030;2023-07-20T07:34:00;6.40;;;2.53;;
20397;SDS011;10358;49.590;11.030;2023-07-20T07:36:25;7.35;;;2.67;;
20397;SDS011;10358;49.590;11.030;2023-07-20T07:38:51;3.95;;;2.20;;
20397;SDS011;10358;49.590;11.030;2023-07-20T07:41:16;4.70;;;2.28;;
20397;SDS011;10358;49.590;11.030;2023-07-20T07:43:42;7.38;;;2.30;;
20397;SDS011;10358;49.590;11.030;2023-07-20T07:46:08;6.60;;;2.40;;
20397;SDS011;10358;49.590;11.030;2023-07-20T07:48:33;12.57;;;2.30;;
20397;SDS011;10358;49.590;11.030;2023-07-20T07:50:59;6.40;;;2.50;;
20397;SDS011;10358;49.590;11.030;2023-07-20T07:53:24;4.78;;;1.90;;
20397;SDS011;10358;49.590;11.030;2023-07-20T07:55:51;6.00;;;2.30;;
20397;SDS011;10358;49.590;11.030;2023-07-20T07:58:17;8.20;;;2.30;;
20397;SDS011;10358;49.590;11.030;2023-07-20T08:00:43;8.82;;;2.35;;
20397;SDS011;10358;49.590;11.030;2023-07-20T08:03:09;4.35;;;2.05;;
20397;SDS011;10358;49.590;11.030;2023-07-20T08:05:35;5.68;;;2.30;;
20397;SDS011;10358;49.590;11.030;2023-07-20T08:08:01;6.13;;;2.42;;
20397;SDS011;10358;49.590;11.030;2023-07-20T08:10:28;5.55;;;2.38;;
20397;SDS011;10358;49.590;11.030;2023-07-20T08:12:54;4.07;;;2.15;;
20397;SDS011;10358;49.590;11.030;2023-07-20T08:15:20;5.00;;;2.20;;
20397;SDS011;10358;49.590;11.030;2023-07-20T08:17:45;4.20;;;2.08;;
20397;SDS011;10358;49.590;11.030;2023-07-20T08:20:12;11.10;;;2.30;;
20397;SDS011;10358;49.590;11.030;2023-07-20T08:22:38;7.68;;;2.03;;
20397;SDS011;10358;49.590;11.030;2023-07-20T08:25:07;5.20;;;2.30;;
20397;SDS011;10358;49.590;11.030;2023-07-20T08:27:33;7.85;;;2.20;;
20397;SDS011;10358;49.590;11.030;2023-07-20T08:29:59;5.70;;;2.03;;
20397;SDS011;10358;49.590;11.030;2023-07-20T08:32:25;7.07;;;2.40;;
20397;SDS011;10358;49.590;11.030;2023-07-20T08:34:51;6.75;;;2.30;;
20397;SDS011;10358;49.590;11.030;2023-07-20T08:37:17;6.40;;;2.10;;
20397;SDS011;10358;49.590;11.030;2023-07-20T08:39:42;5.07;;;2.10;;
20397;SDS011;10358;49.590;11.030;2023-07-20T08:42:08;6.90;;;2.53;;
20397;SDS011;10358;49.590;11.030;2023-07-20T08:44:35;6.78;;;2.85;;
20397;SDS011;10358;49.590;11.030;2023-07-20T08:47:03;8.50;;;2.33;;
20397;SDS011;10358;49.590;11.030;2023-07-20T08:49:34;7.53;;;2.38;;
20397;SDS011;10358;49.590;11.030;2023-07-20T08:52:00;8.05;;;2.38;;
20397;SDS011;10358;49.590;11.030;2023-07-20T08:54:28;4.57;;;2.20;;
20397;SDS011;10358;49.590;11.030;2023-07-20T08:56:58;6.28;;;2.30;;
20397;SDS011;10358;49.590;11.030;2023-07-20T08:59:28;6.88;;;2.03;;
20397;SDS011;10358;49.590;11.030;2023-07-20T09:01:55;6.28;;;1.92;;
20397;SDS011;10358;49.590;11.030;2023-07-20T09:04:24;7.30;;;2.33;;
20397;SDS011;10358;49.590;11.030;2023-07-20T09:06:50;9.23;;;2.92;;
20397;SDS011;10358;49.590;11.030;2023-07-20T09:09:16;6.78;;;1.75;;
20397;SDS011;10358;49.590;11.030;2023-07-20T09:11:42;8.98;;;2.05;;
20397;SDS011;10358;49.590;11.030;2023-07-20T09:14:09;5.90;;;2.03;;
20397;SDS011;10358;49.590;11.030;2023-07-20T09:16:52;5.30;;;1.98;;
20397;SDS011;10358;49.590;11.030;2023-07-20T09:19:19;5.97;;;2.10;;
20397;SDS011;10358;49.590;11.030;2023-07-20T09:21:49;6.90;;;1.85;;
20397;SDS011;10358;49.590;11.030;2023-07-20T09:24:19;5.60;;;1.70;;
20397;SDS011;10358;49.590;11.030;2023-07-20T09:26:45;5.20;;;2.10;;
20397;SDS011;10358;49.590;11.030;2023-07-20T09:29:19;4.45;;;1.83;;
20397;SDS011;10358;49.590;11.030;2023-07-20T09:31:58;7.05;;;1.95;;
20397;SDS011;10358;49.590;11.030;2023-07-20T09:34:24;3.42;;;1.60;;
20397;SDS011;10358;49.590;11.030;2023-07-20T09:36:49;8.25;;;1.80;;
20397;SDS011;10358;49.590;11.030;2023-07-20T09:39:16;6.22;;;1.73;;
20397;SDS011;10358;49.590;11.030;2023-07-20T09:41:42;4.43;;;1.80;;
20397;SDS011;10358;49.590;11.030;2023-07-20T09:44:07;5.15;;;1.80;;
20397;SDS011;10358;49.590;11.030;2023-07-20T09:46:48;5.97;;;1.75;;
20397;SDS011;10358;49.590;11.030;2023-07-20T09:49:14;3.28;;;1.60;;
20397;SDS011;10358;49.590;11.030;2023-07-20T09:51:42;4.88;;;1.55;;
20397;SDS011;10358;49.590;11.030;2023-07-20T09:54:09;5.45;;;1.63;;
20397;SDS011;10358;49.590;11.030;2023-07-20T09:56:36;3.78;;;1.50;;
20397;SDS011;10358;49.590;11.030;2023-07-20T09:59:03;4.15;;;1.70;;
20397;SDS011;10358;49.590;11.030;2023-07-20T10:01:29;3.15;;;1.50;;
20397;SDS011;10358;49.590;11.030;2023-07-20T10:03:58;5.47;;;1.55;;
20397;SDS011;10358;49.590;11.030;2023-07-20T10:06:24;3.22;;;1.70;;
20397;SDS011;10358;49.590;11.030;2023-07-20T10:08:52;3.42;;;1.77;;
20397;SDS011;10358;49.590;11.030;2023-07-20T10:11:21;3.58;;;1.70;;
20397;SDS011;10358;49.590;11.030;2023-07-20T10:13:51;3.42;;;1.45;;
20397;SDS011;10358;49.590;11.030;2023-07-20T10:16:26;5.68;;;1.50;;
20397;SDS011;10358;49.590;11.030;2023-07-20T10:19:05;4.20;;;1.45;;
20397;SDS011;10358;49.590;11.030;2023-07-20T10:22:00;4.30;;;1.60;;
20397;SDS011;10358;49.590;11.030;2023-07-20T10:24:28;5.18;;;1.50;;
20397;SDS011;10358;49.590;11.030;2023-07-20T10:26:57;4.50;;;1.40;;
20397;SDS011;10358;49.590;11.030;2023-07-20T10:29:23;2.58;;;1.30;;
20397;SDS011;10358;49.590;11.030;2023-07-20T10:31:50;4.82;;;1.38;;
20397;SDS011;10358;49.590;11.030;2023-07-20T10:34:16;3.33;;;1.40;;
20397;SDS011;10358;49.590;11.030;2023-07-20T10:36:45;4.70;;;1.80;;
20397;SDS011;10358;49.590;11.030;2023-07-20T10:39:22;4.13;;;1.15;;
20397;SDS011;10358;49.590;11.030;2023-07-20T10:44:28;2.03;;;0.90;;
20397;SDS011;10358;49.590;11.030;2023-07-20T10:47:01;4.13;;;1.40;;
20397;SDS011;10358;49.590;11.030;2023-07-20T10:49:28;2.65;;;1.30;;
20397;SDS011;10358;49.590;11.030;2023-07-20T10:51:57;4.75;;;1.38;;
20397;SDS011;10358;49.590;11.030;2023-07-20T10:56:54;2.25;;;1.20;;
20397;SDS011;10358;49.590;11.030;2023-07-20T11:01:49;2.85;;;1.40;;
20397;SDS011;10358;49.590;11.030;2023-07-20T11:04:20;2.28;;;1.27;;
20397;SDS011;10358;49.590;11.030;2023-07-20T11:07:06;1.95;;;1.20;;
20397;SDS011;10358;49.590;11.030;2023-07-20T11:09:40;2.40;;;1.40;;
20397;SDS011;10358;49.590;11.030;2023-07-20T11:12:14;3.40;;;1.60;;
20397;SDS011;10358;49.590;11.030;2023-07-20T11:14:43;2.75;;;1.35;;
20397;SDS011;10358;49.590;11.030;2023-07-20T11:17:19;2.70;;;1.25;;
20397;SDS011;10358;49.590;11.030;2023-07-20T11:19:51;2.95;;;1.30;;
20397;SDS011;10358;49.590;11.030;2023-07-20T11:22:20;2.13;;;1.23;;
20397;SDS011;10358;49.590;11.030;2023-07-20T11:24:47;5.20;;;1.58;;
20397;SDS011;10358;49.590;11.030;2023-07-20T11:27:14;2.17;;;1.40;;
20397;SDS011;10358;49.590;11.030;2023-07-20T11:29:40;6.35;;;1.58;;
20397;SDS011;10358;49.590;11.030;2023-07-20T11:32:06;3.00;;;1.30;;
20397;SDS011;10358;49.590;11.030;2023-07-20T11:34:32;3.33;;;1.50;;
20397;SDS011;10358;49.590;11.030;2023-07-20T11:36:59;5.65;;;1.70;;
20397;SDS011;10358;49.590;11.030;2023-07-20T11:39:25;7.88;;;1.80;;
20397;SDS011;10358;49.590;11.030;2023-07-20T11:41:51;5.18;;;1.50;;
20397;SDS011;10358;49.590;11.030;2023-07-20T11:44:22;3.72;;;1.50;;
20397;SDS011;10358;49.590;11.030;2023-07-20T11:47:08;4.35;;;1.40;;
20397;SDS011;10358;49.590;11.030;2023-07-20T11:49:38;4.90;;;1.25;;
20397;SDS011;10358;49.590;11.030;2023-07-20T11:52:05;3.15;;;1.63;;
20397;SDS011;10358;49.590;11.030;2023-07-20T11:54:35;2.35;;;1.48;;
20397;SDS011;10358;49.590;11.030;2023-07-20T11:57:02;2.75;;;1.40;;
20397;SDS011;10358;49.590;11.030;2023-07-20T11:59:30;2.10;;;1.40;;
20397;SDS011;10358;49.590;11.030;2023-07-20T12:01:56;5.75;;;1.45;;
20397;SDS011;10358;49.590;11.030;2023-07-20T12:04:22;5.47;;;1.38;;
20397;SDS011;10358;49.590;11.030;2023-07-20T12:06:53;2.38;;;1.25;;
20397;SDS011;10358;49.590;11.030;2023-07-20T12:09:20;1.70;;;1.27;;
20397;SDS011;10358;49.590;11.030;2023-07-20T12:11:48;4.00;;;1.10;;
20397;SDS011;10358;49.590;11.030;2023-07-20T12:14:15;2.38;;;1.40;;
20397;SDS011;10358;49.590;11.030;2023-07-20T12:16:41;1.25;;;1.00;;
20397;SDS011;10358;49.590;11.030;2023-07-20T12:19:07;2.30;;;1.02;;
20397;SDS011;10358;49.590;11.030;2023-07-20T12:21:37;1.83;;;1.27;;
20397;SDS011;10358;49.590;11.030;2023-07-20T12:24:05;4.47;;;1.35;;
20397;SDS011;10358;49.590;11.030;2023-07-20T12:26:31;5.00;;;1.38;;
20397;SDS011;10358;49.590;11.030;2023-07-20T12:28:58;2.58;;;1.45;;
20397;SDS011;10358;49.590;11.030;2023-07-20T12:31:24;1.70;;;1.40;;
20397;SDS011;10358;49.590;11.030;2023-07-20T12:33:51;3.10;;;1.50;;
20397;SDS011;10358;49.590;11.030;2023-07-20T12:36:17;2.33;;;1.25;;
20397;SDS011;10358;49.590;11.030;2023-07-20T12:38:44;2.80;;;1.20;;
20397;SDS011;10358;49.590;11.030;2023-07-20T12:41:10;2.08;;;1.35;;
20397;SDS011;10358;49.590;11.030;2023-07-20T12:43:38;2.15;;;1.45;;
20397;SDS011;10358;49.590;11.030;2023-07-20T12:46:03;2.65;;;1.30;;
20397;SDS011;10358;49.590;11.030;2023-07-20T12:48:29;3.03;;;1.60;;
20397;SDS011;10358;49.590;11.030;2023-07-20T12:50:55;4.70;;;1.50;;
20397;SDS011;10358;49.590;11.030;2023-07-20T12:53:20;3.22;;;1.27;;
20397;SDS011;10358;49.590;11.030;2023-07-20T12:55:47;2.53;;;1.30;;
20397;SDS011;10358;49.590;11.030;2023-07-20T12:58:12;3.92;;;1.40;;
20397;SDS011;10358;49.590;11.030;2023-07-20T13:00:38;5.35;;;1.33;;
20397;SDS011;10358;49.590;11.030;2023-07-20T13:03:04;2.53;;;1.40;;
20397;SDS011;10358;49.590;11.030;2023-07-20T13:05:31;3.10;;;1.55;;
20397;SDS011;10358;49.590;11.030;2023-07-20T13:07:57;3.13;;;1.20;;
20397;SDS011;10358;49.590;11.030;2023-07-20T13:10:23;2.72;;;1.40;;
20397;SDS011;10358;49.590;11.030;2023-07-20T13:12:49;4.10;;;1.48;;
20397;SDS011;10358;49.590;11.030;2023-07-20T13:15:16;3.63;;;1.50;;
20397;SDS011;10358;49.590;11.030;2023-07-20T13:17:42;6.57;;;1.60;;
20397;SDS011;10358;49.590;11.030;2023-07-20T13:20:09;3.15;;;1.30;;
20397;SDS011;10358;49.590;11.030;2023-07-20T13:22:39;2.92;;;1.27;;
20397;SDS011;10358;49.590;11.030;2023-07-20T13:25:05;2.00;;;1.38;;
20397;SDS011;10358;49.590;11.030;2023-07-20T13:27:32;4.03;;;1.42;;
20397;SDS011;10358;49.590;11.030;2023-07-20T13:29:58;2.63;;;1.50;;
20397;SDS011;10358;49.590;11.030;2023-07-20T13:32:26;2.92;;;1.60;;
20397;SDS011;10358;49.590;11.030;2023-07-20T13:34:52;2.70;;;1.50;;
20397;SDS011;10358;49.590;11.030;2023-07-20T13:37:17;3.95;;;1.50;;
20397;SDS011;10358;49.590;11.030;2023-07-20T13:39:43;2.97;;;1.48;;
20397;SDS011;10358;49.590;11.030;2023-07-20T13:42:09;3.95;;;1.30;;
20397;SDS011;10358;49.590;11.030;2023-07-20T13:44:37;4.60;;;1.77;;
20397;SDS011;10358;49.590;11.030;2023-07-20T13:47:03;2.88;;;1.45;;
20397;SDS011;10358;49.590;11.030;2023-07-20T13:49:30;4.70;;;1.58;;
20397;SDS011;10358;49.590;11.030;2023-07-20T13:51:56;5.45;;;1.65;;
20397;SDS011;10358;49.590;11.030;2023-07-20T13:54:22;2.00;;;1.30;;
20397;SDS011;10358;49.590;11.030;2023-07-20T13:56:51;2.85;;;1.30;;
20397;SDS011;10358;49.590;11.030;2023-07-20T13:59:17;2.08;;;1.30;;
20397;SDS011;10358;49.590;11.030;2023-07-20T14:01:43;1.75;;;1.40;;
20397;SDS011;10358;49.590;11.030;2023-07-20T14:04:08;2.70;;;1.60;;
20397;SDS011;10358;49.590;11.030;2023-07-20T14:06:34;2.33;;;1.40;;
20397;SDS011;10358;49.590;11.030;2023-07-20T14:08:59;6.15;;;1.60;;
20397;SDS011;10358;49.590;11.030;2023-07-20T14:11:25;2.90;;;1.30;;
20397;SDS011;10358;49.590;11.030;2023-07-20T14:13:53;2.17;;;1.40;;
20397;SDS011;10358;49.590;11.030;2023-07-20T14:16:19;3.72;;;1.50;;
20397;SDS011;10358;49.590;11.030;2023-07-20T14:18:46;2.42;;;1.40;;
20397;SDS011;10358;49.590;11.030;2023-07-20T14:21:13;3.70;;;1.50;;
20397;SDS011;10358;49.590;11.030;2023-07-20T14:23:39;4.20;;;1.40;;
20397;SDS011;10358;49.590;11.030;2023-07-20T14:26:05;3.47;;;1.20;;
20397;SDS011;10358;49.590;11.030;2023-07-20T14:28:32;2.55;;;1.35;;
20397;SDS011;10358;49.590;11.030;2023-07-20T14:31:00;4.35;;;1.45;;
20397;SDS011;10358;49.590;11.030;2023-07-20T14:33:26;2.95;;;1.48;;
20397;SDS011;10358;49.590;11.030;2023-07-20T14:35:51;2.03;;;1.30;;
20397;SDS011;10358;49.590;11.030;2023-07-20T14:38:17;2.55;;;1.30;;
20397;SDS011;10358;49.590;11.030;2023-07-20T14:40:42;1.88;;;1.25;;
20397;SDS011;10358;49.590;11.030;2023-07-20T14:43:09;3.03;;;1.35;;
20397;SDS011;10358;49.590;11.030;2023-07-20T14:45:35;2.83;;;1.30;;
20397;SDS011;10358;49.590;11.030;2023-07-20T14:48:03;2.55;;;1.30;;
20397;SDS011;10358;49.590;11.030;2023-07-20T14:50:28;2.30;;;1.38;;
20397;SDS011;10358;49.590;11.030;2023-07-20T14:52:54;2.78;;;1.38;;